Time;durP1;ratioP1;P1;durP2;ratioP2;P2;SDS_P1;SDS_P2;PMS_P1;PMS_P2;Temp;Humidity;BMP_temperature;BMP_pressure;BME280_temperature;BME280_humidity;BME280_pressure;Samples;Min_cycle;Max_cycle;Signal;HPM_P1;HPM_P2
2022/11/28 00:00:42;;;;;;;;;;;;;;;-144.99;100.00;52627.47;5058972;28;19963;-83
2022/11/28 00:03:09;;;;;;;;;;;;;;;-144.99;100.00;52607.09;5054636;28;19982;-78
2022/11/28 00:05:37;;;;;;;;;;;;;;;-144.99;100.00;52639.69;5049224;28;20030;-77
2022/11/28 00:08:03;;;;;;;;;;;;;;;-144.99;100.00;52623.38;5046902;28;20161;-77
2022/11/28 00:10:30;;;;;;;;;;;;;;;-144.99;100.00;52639.69;5029360;28;19988;-76
2022/11/28 00:12:57;;;;;;;;;;;;;;;-144.99;100.00;52596.88;5044995;28;19953;-77
2022/11/28 00:15:24;;;;;;;;;;;;;;;-144.99;100.00;52607.09;5057175;28;19936;-77
2022/11/28 00:17:52;;;;;;;;;;;;;;;-144.99;100.00;52619.31;5047753;28;20413;-77
2022/11/28 00:20:18;;;;;;;;;;;;;;;-144.99;100.00;52635.63;5029058;28;20476;-76
2022/11/28 00:22:45;;;;;;;;;;;;;;;-144.99;100.00;52635.63;5053707;28;20424;-76
2022/11/28 00:25:11;;;;;;;;;;;;;;;-144.99;100.00;52664.16;5055477;28;19943;-76
2022/11/28 00:27:38;;;;;;;;;;;;;;;-144.99;100.00;52619.31;5030790;28;19959;-77
2022/11/28 00:30:05;;;;;;;;;;;;;;;-144.99;100.00;52611.16;5029029;28;20025;-78
2022/11/28 00:32:32;;;;;;;;;;;;;;;-144.99;100.00;52656.00;5040327;28;19947;-77
2022/11/28 00:34:59;;;;;;;;;;;;;;;-144.99;100.00;52600.97;5052769;28;19945;-77
2022/11/28 00:37:25;;;;;;;;;;;;;;;-144.99;100.00;52603.00;5047767;28;20090;-76
2022/11/28 00:39:52;;;;;;;;;;;;;;;-144.99;100.00;52619.31;5041478;28;20516;-75
2022/11/28 00:42:21;;;;;;;;;;;;;;;-144.99;100.00;52607.09;5041457;28;19961;-77
2022/11/28 00:44:47;;;;;;;;;;;;;;;-144.99;100.00;52619.31;5057326;28;19941;-74
2022/11/28 00:47:14;;;;;;;;;;;;;;;-144.99;100.00;52643.78;5040748;28;20360;-77
2022/11/28 00:49:42;;;;;;;;;;;;;;;-144.99;100.00;52635.63;5029499;28;20354;-76
2022/11/28 00:52:08;;;;;;;;;;;;;;;-144.99;100.00;52619.31;5034776;28;20458;-75
2022/11/28 00:54:35;;;;;;;;;;;;;;;-144.99;100.00;52639.69;5049871;28;20013;-76
2022/11/28 00:57:01;;;;;;;;;;;;;;;-144.99;100.00;52621.34;4694279;28;9999636;-76
2022/11/28 00:59:28;;;;;;;;;;;;;;;-144.99;100.00;52631.53;5049436;28;20493;-74
2022/11/28 01:01:55;;;;;;;;;;;;;;;-144.99;100.00;52643.78;5040839;28;19972;-75
2022/11/28 01:04:21;;;;;;;;;;;;;;;-144.99;100.00;52627.47;5047318;28;20252;-77
2022/11/28 01:06:50;;;;;;;;;;;;;;;-144.99;100.00;52615.25;5053778;28;20341;-74
2022/11/28 01:09:18;;;;;;;;;;;;;;;-144.99;100.00;52643.78;5053450;28;19961;-74
2022/11/28 01:11:45;;;;;;;;;;;;;;;-144.99;100.00;52594.84;5063046;28;19963;-80
2022/11/28 01:14:13;;;;;;;;;;;;;;;-144.99;100.00;52621.34;5057717;28;20527;-73
2022/11/28 01:16:40;;;;;;;;;;;;;;;-144.99;100.00;52611.16;5047628;28;19933;-74
2022/11/28 01:19:07;;;;;;;;;;;;;;;-144.99;100.00;52627.47;5060738;28;20061;-75
2022/11/28 01:21:34;;;;;;;;;;;;;;;-144.99;100.00;52578.53;5087189;22;20007;-72
2022/11/28 01:24:02;;;;;;;;;;;;;;;-144.99;100.00;52619.31;5083454;28;20395;-72
2022/11/28 01:26:32;;;;;;;;;;;;;;;-144.99;100.00;52590.78;5080985;28;20008;-71
2022/11/28 01:28:59;;;;;;;;;;;;;;;-144.99;100.00;52631.53;5087155;28;19935;-72
2022/11/28 01:31:27;;;;;;;;;;;;;;;-144.99;100.00;52623.38;5085263;28;19979;-70
2022/11/28 01:33:53;;;;;;;;;;;;;;;-144.99;100.00;52633.59;5084865;28;19940;-70
2022/11/28 01:36:20;;;;;;;;;;;;;;;-144.99;100.00;52623.38;5083848;28;20035;-71
2022/11/28 01:38:47;;;;;;;;;;;;;;;-144.99;100.00;52623.38;5097729;28;20013;-70
2022/11/28 01:41:16;;;;;;;;;;;;;;;-144.99;100.00;52623.38;5097275;28;19924;-70
2022/11/28 01:43:57;;;;;;;;;;;;;;;-144.99;100.00;52603.00;5088936;28;20011;-71
2022/11/28 01:46:23;;;;;;;;;;;;;;;-144.99;100.00;52611.16;5092375;28;20454;-71
2022/11/28 01:48:50;;;;;;;;;;;;;;;-144.99;100.00;52596.88;5085185;28;19946;-72
2022/11/28 01:51:17;;;;;;;;;;;;;;;-144.99;100.00;52627.47;5094159;28;19964;-72
2022/11/28 01:53:45;;;;;;;;;;;;;;;-144.99;100.00;52594.84;5102558;28;19925;-71
2022/11/28 01:56:15;;;;;;;;;;;;;;;-144.99;100.00;52621.34;5092691;28;20483;-70
2022/11/28 01:58:45;;;;;;;;;;;;;;;-144.99;100.00;52660.09;5072204;28;19989;-70
2022/11/28 02:01:11;;;;;;;;;;;;;;;-144.99;100.00;52594.84;5077096;28;19963;-71
2022/11/28 02:03:41;;;;;;;;;;;;;;;-144.99;100.00;52631.53;5080214;28;19943;-71
2022/11/28 02:06:08;;;;;;;;;;;;;;;-144.99;100.00;52619.31;5081852;28;19949;-71
2022/11/28 02:08:35;;;;;;;;;;;;;;;-144.99;100.00;52647.84;5079914;28;19939;-71
2022/11/28 02:11:11;;;;;;;;;;;;;;;-144.99;100.00;52607.09;5082578;28;20402;-71
2022/11/28 02:13:42;;;;;;;;;;;;;;;-144.99;100.00;52623.38;5083683;28;20182;-72
2022/11/28 02:16:23;;;;;;;;;;;;;;;-144.99;100.00;52598.94;5082033;28;19994;-72
2022/11/28 02:18:58;;;;;;;;;;;;;;;-144.99;100.00;52621.34;5087934;28;19932;-73
2022/11/28 02:21:32;;;;;;;;;;;;;;;-144.99;100.00;52586.69;5102365;28;19912;-71
2022/11/28 02:24:17;;;;;;;;;;;;;;;-144.99;100.00;52609.13;5092132;28;19939;-71
2022/11/28 02:26:53;;;;;;;;;;;;;;;-144.99;100.00;52635.63;5103966;28;19936;-72
2022/11/28 02:29:41;;;;;;;;;;;;;;;-144.99;100.00;52584.66;5097492;28;19943;-71
2022/11/28 02:32:23;;;;;;;;;;;;;;;-144.99;100.00;52611.16;5098783;28;20745;-72
2022/11/28 02:34:56;;;;;;;;;;;;;;;-144.99;100.00;52619.31;5108716;28;19936;-72
2022/11/28 02:37:28;;;;;;;;;;;;;;;-144.99;100.00;52623.38;5111151;28;19938;-72
2022/11/28 02:39:59;;;;;;;;;;;;;;;-144.99;100.00;52598.94;5113561;27;19996;-72
2022/11/28 02:42:30;;;;;;;;;;;;;;;-144.99;100.00;52651.94;5107072;28;19928;-71
2022/11/28 02:45:00;;;;;;;;;;;;;;;-144.99;100.00;52598.94;5101471;28;19937;-72
2022/11/28 02:47:32;;;;;;;;;;;;;;;-144.99;100.00;52643.78;5095295;28;19924;-72
2022/11/28 02:50:04;;;;;;;;;;;;;;;-144.99;100.00;52664.16;5101757;28;19930;-72
2022/11/28 02:52:34;;;;;;;;;;;;;;;-144.99;100.00;52643.78;5095672;28;19947;-72
2022/11/28 02:55:01;;;;;;;;;;;;;;;-144.99;100.00;52619.31;5102957;28;19919;-73
2022/11/28 02:57:34;;;;;;;;;;;;;;;-144.99;100.00;52603.00;5115438;28;19942;-73
2022/11/28 03:00:00;;;;;;;;;;;;;;;-144.99;100.00;52641.72;5115945;28;19912;-74
2022/11/28 03:02:29;;;;;;;;;;;;;;;-144.99;100.00;52607.09;5103788;28;19942;-74
2022/11/28 03:05:05;;;;;;;;;;;;;;;-144.99;100.00;52619.31;5104112;27;19923;-73
2022/11/28 03:07:39;;;;;;;;;;;;;;;-144.99;99.78;52603.00;5096999;28;19938;-72
2022/11/28 03:10:14;;;;;;;;;;;;;;;-144.99;99.53;52656.00;5093416;28;19971;-71
2022/11/28 03:12:50;;;;;;;;;;;;;;;-144.99;99.51;52615.25;5105295;28;19923;-72
2022/11/28 03:15:17;;;;;;;;;;;;;;;-144.99;99.02;52594.84;5111939;28;19957;-72
2022/11/28 03:17:48;;;;;;;;;;;;;;;-144.99;98.75;52615.25;5095140;28;19938;-72
2022/11/28 03:20:21;;;;;;;;;;;;;;;-144.99;98.56;52692.69;5096069;28;19943;-72
2022/11/28 03:22:53;;;;;;;;;;;;;;;-144.99;98.59;52578.53;5084488;28;19949;-72
2022/11/28 03:25:22;;;;;;;;;;;;;;;-144.99;98.37;52643.78;5089155;28;19946;-71
2022/11/28 03:27:53;;;;;;;;;;;;;;;-144.99;99.03;52603.00;5081401;28;19943;-71
2022/11/28 03:30:22;;;;;;;;;;;;;;;-144.99;98.51;52600.97;5080219;28;20351;-71
2022/11/28 03:32:52;;;;;;;;;;;;;;;-144.99;98.32;52603.00;5080231;28;20390;-70
2022/11/28 03:35:22;;;;;;;;;;;;;;;-144.99;97.94;52607.09;5081278;28;20434;-70
2022/11/28 03:37:51;;;;;;;;;;;;;;;-144.99;98.07;52590.78;5084938;28;20487;-70
2022/11/28 03:40:23;;;;;;;;;;;;;;;-144.99;97.93;52676.38;5088400;28;20434;-70
2022/11/28 03:42:54;;;;;;;;;;;;;;;-144.99;98.26;52662.13;5080983;28;19970;-69
2022/11/28 03:45:22;;;;;;;;;;;;;;;-144.99;97.69;52643.78;5076192;28;19980;-68
2022/11/28 03:47:51;;;;;;;;;;;;;;;-144.99;97.45;52590.78;5089308;28;19934;-69
2022/11/28 03:50:20;;;;;;;;;;;;;;;-144.99;97.01;52625.44;5081065;28;20294;-69
2022/11/28 03:52:50;;;;;;;;;;;;;;;-144.99;95.96;52598.94;5096765;28;19963;-70
2022/11/28 03:55:19;;;;;;;;;;;;;;;-144.99;96.17;52641.72;5100581;28;19941;-70
2022/11/28 03:57:49;;;;;;;;;;;;;;;-144.99;95.86;52615.25;5085914;28;19942;-69
2022/11/28 04:00:16;;;;;;;;;;;;;;;-144.99;95.85;52641.72;5083665;28;19949;-68
2022/11/28 04:02:48;;;;;;;;;;;;;;;-144.99;95.91;52647.84;5084831;28;19952;-70
2022/11/28 04:05:18;;;;;;;;;;;;;;;-144.99;96.04;52651.94;5082416;28;20380;-69
2022/11/28 04:07:47;;;;;;;;;;;;;;;-144.99;96.12;52594.84;5081471;28;20390;-69
2022/11/28 04:10:17;;;;;;;;;;;;;;;-144.99;95.55;52643.78;5081449;28;20398;-68
2022/11/28 04:12:48;;;;;;;;;;;;;;;-144.99;95.37;52625.44;5082966;28;19941;-69
2022/11/28 04:15:17;;;;;;;;;;;;;;;-144.99;95.67;52633.59;5081003;28;19965;-69
2022/11/28 04:17:47;;;;;;;;;;;;;;;-144.99;95.60;52609.13;5085956;28;20456;-72
2022/11/28 04:20:19;;;;;;;;;;;;;;;-144.99;95.73;52611.16;5074379;28;19942;-70
2022/11/28 04:22:49;;;;;;;;;;;;;;;-144.99;95.32;52629.50;5078187;28;19951;-72
2022/11/28 04:25:20;;;;;;;;;;;;;;;-144.99;95.45;52619.31;5089982;28;20011;-69
2022/11/28 04:27:49;;;;;;;;;;;;;;;-144.99;95.64;52598.94;5083360;28;19945;-71
2022/11/28 04:30:16;;;;;;;;;;;;;;;-144.99;95.49;52639.69;5088666;28;20385;-70
2022/11/28 04:32:46;;;;;;;;;;;;;;;-144.99;95.65;52660.09;5090539;28;19916;-74
2022/11/28 04:35:14;;;;;;;;;;;;;;;-144.99;95.75;52607.09;5107835;28;19912;-71
2022/11/28 04:37:47;;;;;;;;;;;;;;;-144.99;95.76;52643.78;5082112;28;19928;-71
2022/11/28 04:40:14;;;;;;;;;;;;;;;-144.99;95.87;52656.00;5086074;28;19942;-72
2022/11/28 04:42:47;;;;;;;;;;;;;;;-144.99;95.42;52594.84;5079736;28;20009;-72
2022/11/28 04:45:16;;;;;;;;;;;;;;;-144.99;95.62;52631.53;5087632;28;20388;-71
2022/11/28 04:47:43;;;;;;;;;;;;;;;-144.99;96.05;52651.94;5084858;28;19962;-71
2022/11/28 04:50:09;;;;;;;;;;;;;;;-144.99;95.60;52656.00;5085491;28;20402;-71
2022/11/28 04:52:39;;;;;;;;;;;;;;;-144.99;95.74;52619.31;5079824;28;20007;-72
2022/11/28 04:55:10;;;;;;;;;;;;;;;-144.99;96.22;52629.50;5080890;28;19945;-71
2022/11/28 04:57:37;;;;;;;;;;;;;;;-144.99;96.11;52598.94;5080172;28;20391;-69
2022/11/28 05:00:07;;;;;;;;;;;;;;;-144.99;95.71;52615.25;5079675;28;19978;-70
2022/11/28 05:02:34;;;;;;;;;;;;;;;-144.99;95.83;52639.69;5075929;28;19963;-70
2022/11/28 05:05:00;;;;;;;;;;;;;;;-144.99;96.10;52639.69;5087302;28;19934;-70
2022/11/28 05:07:27;;;;;;;;;;;;;;;-144.99;95.63;52639.69;5080095;28;20328;-70
2022/11/28 05:09:54;;;;;;;;;;;;;;;-144.99;96.19;52619.31;5080710;28;19947;-70
2022/11/28 05:12:21;;;;;;;;;;;;;;;-144.99;96.29;52647.84;5089169;28;20005;-70
2022/11/28 05:14:47;;;;;;;;;;;;;;;-144.99;95.88;52643.78;5084725;28;19943;-70
2022/11/28 05:17:15;;;;;;;;;;;;;;;-144.99;96.05;52647.84;5091818;28;20004;-71
2022/11/28 05:19:41;;;;;;;;;;;;;;;-144.99;96.29;52668.22;5088030;28;20009;-71
2022/11/28 05:22:08;;;;;;;;;;;;;;;-144.99;96.82;52615.25;5082483;28;19931;-71
2022/11/28 05:24:34;;;;;;;;;;;;;;;-144.99;96.42;52645.81;5085050;28;19939;-71
2022/11/28 05:27:01;;;;;;;;;;;;;;;-144.99;95.91;52611.16;5076950;28;19933;-71
2022/11/28 05:29:27;;;;;;;;;;;;;;;-144.99;96.29;52639.69;5080031;28;19938;-72
2022/11/28 05:31:54;;;;;;;;;;;;;;;-144.99;95.68;52672.31;5078563;28;20020;-72
2022/11/28 05:34:22;;;;;;;;;;;;;;;-144.99;96.29;52582.63;5087816;28;19945;-73
2022/11/28 05:36:48;;;;;;;;;;;;;;;-144.99;95.83;52645.81;5087336;28;19968;-72
2022/11/28 05:39:15;;;;;;;;;;;;;;;-144.99;95.95;52635.63;5074636;28;19989;-73
2022/11/28 05:41:41;;;;;;;;;;;;;;;-144.99;96.19;52603.00;5075790;28;19934;-73
2022/11/28 05:44:10;;;;;;;;;;;;;;;-144.99;95.58;52649.88;5075296;28;20360;-74
2022/11/28 05:46:36;;;;;;;;;;;;;;;-144.99;96.50;52594.84;5078767;28;20497;-73
2022/11/28 05:49:03;;;;;;;;;;;;;;;-144.99;96.01;52615.25;5071675;28;19964;-74
2022/11/28 05:51:30;;;;;;;;;;;;;;;-144.99;95.35;52635.63;5074998;28;19951;-74
2022/11/28 05:53:57;;;;;;;;;;;;;;;-144.99;95.21;52615.25;5083869;28;19981;-74
2022/11/28 05:56:23;;;;;;;;;;;;;;;-144.99;95.05;52656.00;5099792;28;19931;-74
2022/11/28 05:58:50;;;;;;;;;;;;;;;-144.99;94.68;52656.00;5084257;28;19935;-76
2022/11/28 06:01:18;;;;;;;;;;;;;;;-144.99;94.24;52611.16;5088750;28;19935;-75
2022/11/28 06:03:45;;;;;;;;;;;;;;;-144.99;94.16;52639.69;5077345;28;19966;-73
2022/11/28 06:06:13;;;;;;;;;;;;;;;-144.99;94.25;52619.31;4377216;28;10000751;-73
2022/11/28 06:08:43;;;;;;;;;;;;;;;-144.99;94.10;52635.63;5079770;28;20383;-73
2022/11/28 06:11:10;;;;;;;;;;;;;;;-144.99;94.29;52617.28;5090430;28;19975;-70
2022/11/28 06:13:37;;;;;;;;;;;;;;;-144.99;93.92;52631.53;5088738;28;20513;-71
2022/11/28 06:16:06;;;;;;;;;;;;;;;-144.99;93.63;52615.25;5081108;28;19981;-71
2022/11/28 06:18:33;;;;;;;;;;;;;;;-144.99;93.65;52617.28;5085183;28;19940;-72
2022/11/28 06:21:01;;;;;;;;;;;;;;;-144.99;94.06;52617.28;5085888;28;20010;-71
2022/11/28 06:23:27;;;;;;;;;;;;;;;-144.99;93.89;52647.84;5078855;28;20005;-70
2022/11/28 06:25:55;;;;;;;;;;;;;;;-144.99;94.43;52627.47;5072679;28;20096;-73
2022/11/28 06:28:22;;;;;;;;;;;;;;;-144.99;93.89;52611.16;5078341;28;19944;-70
2022/11/28 06:30:48;;;;;;;;;;;;;;;-144.99;94.02;52605.03;5087760;28;19958;-71
2022/11/28 06:33:15;;;;;;;;;;;;;;;-144.99;94.45;52607.09;5073373;28;20401;-70
2022/11/28 06:35:41;;;;;;;;;;;;;;;-144.99;94.55;52603.00;5081735;28;19935;-73
2022/11/28 06:38:08;;;;;;;;;;;;;;;-144.99;94.77;52619.31;5092331;28;19941;-71
2022/11/28 06:40:34;;;;;;;;;;;;;;;-144.99;94.20;52615.25;5085186;28;20402;-71
2022/11/28 06:43:02;;;;;;;;;;;;;;;-144.99;94.40;52635.63;5084669;28;19928;-71
2022/11/28 06:45:29;;;;;;;;;;;;;;;-144.99;94.43;52680.47;5077262;28;20529;-71
2022/11/28 06:47:55;;;;;;;;;;;;;;;-144.99;94.34;52615.25;5084305;28;19997;-71
2022/11/28 06:50:22;;;;;;;;;;;;;;;-144.99;94.04;52633.59;5081616;28;19996;-72
2022/11/28 06:52:48;;;;;;;;;;;;;;;-144.99;93.99;52629.50;5085393;28;19935;-71
2022/11/28 06:55:16;;;;;;;;;;;;;;;-144.99;93.89;52627.47;5076798;28;20011;-71
2022/11/28 06:57:42;;;;;;;;;;;;;;;-144.99;93.85;52649.88;5075193;28;19954;-72
2022/11/28 07:00:11;;;;;;;;;;;;;;;-144.99;93.87;52631.53;5072792;28;19969;-71
2022/11/28 07:02:37;;;;;;;;;;;;;;;-144.99;93.80;52651.94;5075307;28;20425;-72
2022/11/28 07:05:04;;;;;;;;;;;;;;;-144.99;93.91;52609.13;5068253;28;19945;-72
2022/11/28 07:07:31;;;;;;;;;;;;;;;-144.99;93.97;52627.47;5072377;28;19938;-74
2022/11/28 07:09:57;;;;;;;;;;;;;;;-144.99;93.47;52594.84;5077396;28;19939;-71
2022/11/28 07:12:24;;;;;;;;;;;;;;;-144.99;93.57;52635.63;5086233;28;20012;-71
2022/11/28 07:14:50;;;;;;;;;;;;;;;-144.99;93.73;52607.09;5070270;28;19943;-72
2022/11/28 07:17:18;;;;;;;;;;;;;;;-144.99;93.61;52623.38;5091513;28;19961;-72
2022/11/28 07:19:45;;;;;;;;;;;;;;;-144.99;93.46;52631.53;5096072;28;19998;-71
2022/11/28 07:22:11;;;;;;;;;;;;;;;-144.99;92.99;52660.09;5075512;28;19982;-72
2022/11/28 07:24:38;;;;;;;;;;;;;;;-144.99;93.00;52598.94;5075716;28;19928;-73
2022/11/28 07:27:04;;;;;;;;;;;;;;;-144.99;93.44;52631.53;5073363;28;20143;-71
2022/11/28 07:29:35;;;;;;;;;;;;;;;-144.99;93.66;52607.09;5070222;28;20004;-71
2022/11/28 07:32:01;;;;;;;;;;;;;;;-144.99;93.12;52615.25;5074379;28;20330;-72
2022/11/28 07:34:29;;;;;;;;;;;;;;;-144.99;93.13;52615.25;5078702;28;19939;-72
2022/11/28 07:36:56;;;;;;;;;;;;;;;-144.99;93.07;52627.47;5078862;28;19947;-74
2022/11/28 07:39:22;;;;;;;;;;;;;;;-144.99;93.00;52611.16;5077588;28;20428;-75
2022/11/28 07:41:49;;;;;;;;;;;;;;;-144.99;93.33;52615.25;5085436;28;20186;-73
2022/11/28 07:44:16;;;;;;;;;;;;;;;-144.99;93.64;52678.44;5091697;28;20005;-70
2022/11/28 07:46:43;;;;;;;;;;;;;;;-144.99;93.29;52615.25;5086547;28;19948;-73
2022/11/28 07:49:10;;;;;;;;;;;;;;;-144.99;93.25;52641.72;5072603;28;19939;-73
2022/11/28 07:51:38;;;;;;;;;;;;;;;-144.99;93.03;52704.94;5082677;28;20045;-73
2022/11/28 07:54:05;;;;;;;;;;;;;;;-144.99;92.89;52598.94;4732182;28;10000262;-71
2022/11/28 07:56:35;;;;;;;;;;;;;;;-144.99;93.30;52664.16;5097387;28;19952;-71
2022/11/28 07:59:03;;;;;;;;;;;;;;;-144.99;93.88;52651.94;5083849;28;19947;-71
2022/11/28 08:01:30;;;;;;;;;;;;;;;-144.99;94.53;52647.84;5080119;28;19950;-70
2022/11/28 08:03:57;;;;;;;;;;;;;;;-144.99;94.65;52603.00;5076338;28;19954;-72
2022/11/28 08:06:25;;;;;;;;;;;;;;;-144.99;96.08;52627.47;5071654;28;19950;-74
2022/11/28 08:08:53;;;;;;;;;;;;;;;-144.99;96.16;52617.28;5084245;28;19960;-73
2022/11/28 08:11:21;;;;;;;;;;;;;;;-144.99;96.99;52700.84;5073650;28;19962;-71
2022/11/28 08:13:48;;;;;;;;;;;;;;;-144.99;97.21;52633.59;5069007;28;20063;-70
2022/11/28 08:16:18;;;;;;;;;;;;;;;-144.99;97.25;52647.84;5083066;28;20212;-72
2022/11/28 08:18:45;;;;;;;;;;;;;;;-144.99;98.22;52635.63;5079779;28;19944;-72
2022/11/28 08:21:12;;;;;;;;;;;;;;;-144.99;98.72;52586.69;5087108;28;20025;-70
2022/11/28 08:23:39;;;;;;;;;;;;;;;-144.99;98.84;52639.69;5084036;28;19971;-71
2022/11/28 08:26:08;;;;;;;;;;;;;;;-144.99;99.10;52594.84;5072762;28;20031;-70
2022/11/28 08:28:35;;;;;;;;;;;;;;;-144.99;99.67;52631.53;5083069;28;19946;-73
2022/11/28 08:31:08;;;;;;;;;;;;;;;-144.99;100.00;52660.09;5076050;28;19956;-72
2022/11/28 08:33:34;;;;;;;;;;;;;;;-144.99;100.00;52651.94;5071251;28;20182;-71
2022/11/28 08:36:03;;;;;;;;;;;;;;;-144.99;100.00;52664.16;5077040;28;19950;-71
2022/11/28 08:38:30;;;;;;;;;;;;;;;-144.99;100.00;52651.94;5092813;28;20179;-71
2022/11/28 08:41:00;;;;;;;;;;;;;;;-144.99;100.00;52631.53;5081874;28;20563;-71
2022/11/28 08:43:28;;;;;;;;;;;;;;;-144.99;100.00;52651.94;5072732;28;20251;-71
2022/11/28 08:45:55;;;;;;;;;;;;;;;-144.99;100.00;52619.31;5079890;28;19955;-72
2022/11/28 08:48:21;;;;;;;;;;;;;;;-144.99;100.00;52635.63;5079012;28;19974;-73
2022/11/28 08:50:48;;;;;;;;;;;;;;;-144.99;100.00;52645.81;5090925;28;19963;-71
2022/11/28 08:53:15;;;;;;;;;;;;;;;-144.99;100.00;52627.47;5085416;28;19950;-71
2022/11/28 08:55:43;;;;;;;;;;;;;;;-144.99;100.00;52615.25;5084318;28;20340;-71
2022/11/28 08:58:09;;;;;;;;;;;;;;;-144.99;100.00;52623.38;5074217;28;19969;-73
2022/11/28 09:00:38;;;;;;;;;;;;;;;-144.99;100.00;52635.63;5081198;28;20319;-72
2022/11/28 09:03:05;;;;;;;;;;;;;;;-144.99;100.00;52668.22;5072907;28;20341;-71
2022/11/28 09:05:32;;;;;;;;;;;;;;;-144.99;100.00;52653.97;5068909;28;20421;-70
2022/11/28 09:07:58;;;;;;;;;;;;;;;-144.99;100.00;52590.78;5078013;28;20040;-72
2022/11/28 09:10:25;;;;;;;;;;;;;;;-144.99;100.00;52619.31;5082508;28;19939;-78
2022/11/28 09:12:52;;;;;;;;;;;;;;;-144.99;100.00;52570.38;5075903;28;20068;-78
2022/11/28 09:15:19;;;;;;;;;;;;;;;-144.99;100.00;52631.53;5072798;28;19950;-72
2022/11/28 09:17:47;;;;;;;;;;;;;;;-144.99;100.00;52643.78;5099853;28;19997;-73
2022/11/28 09:20:15;;;;;;;;;;;;;;;-144.99;100.00;52635.63;5093391;28;19963;-75
2022/11/28 09:22:42;;;;;;;;;;;;;;;-144.99;100.00;52647.84;5076032;28;19962;-72
2022/11/28 09:25:09;;;;;;;;;;;;;;;-144.99;100.00;52627.47;5076936;28;19929;-71
2022/11/28 09:27:35;;;;;;;;;;;;;;;-144.99;100.00;52662.13;5082854;28;19943;-71
2022/11/28 09:30:02;;;;;;;;;;;;;;;-144.99;100.00;52603.00;5084778;28;20421;-70
2022/11/28 09:32:28;;;;;;;;;;;;;;;-144.99;100.00;52607.09;5076932;28;20484;-72
2022/11/28 09:34:56;;;;;;;;;;;;;;;-144.99;100.00;52629.50;5076075;28;19990;-72
2022/11/28 09:37:23;;;;;;;;;;;;;;;-144.99;100.00;52613.19;5084523;28;20358;-71
2022/11/28 09:39:50;;;;;;;;;;;;;;;-144.99;100.00;52643.78;5078197;28;19945;-72
2022/11/28 09:42:22;;;;;;;;;;;;;;;-144.99;100.00;52627.47;5069267;28;20550;-72
2022/11/28 09:44:50;;;;;;;;;;;;;;;-144.99;100.00;52615.25;5082260;28;20659;-72
2022/11/28 09:47:22;;;;;;;;;;;;;;;-144.99;100.00;52635.63;5087074;28;19944;-73
2022/11/28 09:49:51;;;;;;;;;;;;;;;-144.99;100.00;52580.59;5071970;28;19993;-72
2022/11/28 09:52:28;;;;;;;;;;;;;;;-144.99;100.00;52617.28;5078107;28;19935;-72
2022/11/28 09:54:58;;;;;;;;;;;;;;;-144.99;100.00;52635.63;5077022;28;19944;-72
2022/11/28 09:57:29;;;;;;;;;;;;;;;-144.99;100.00;52656.00;5068776;28;20008;-71
2022/11/28 09:59:56;;;;;;;;;;;;;;;-144.99;100.00;52656.00;5069704;28;19996;-71
2022/11/28 10:02:26;;;;;;;;;;;;;;;-144.99;100.00;52586.69;5079560;28;20049;-72
2022/11/28 10:04:59;;;;;;;;;;;;;;;-144.99;100.00;52613.19;5087787;28;20066;-75
2022/11/28 10:07:31;;;;;;;;;;;;;;;-144.99;100.00;52619.31;5081407;28;20402;-71
2022/11/28 10:10:03;;;;;;;;;;;;;;;-144.99;100.00;52594.84;5077768;28;19978;-71
2022/11/28 10:12:35;;;;;;;;;;;;;;;-144.99;100.00;52639.69;5069206;28;20160;-73
2022/11/28 10:15:17;;;;;;;;;;;;;;;-144.99;100.00;52586.69;5068607;28;19963;-69
2022/11/28 10:17:48;;;;;;;;;;;;;;;-144.99;100.00;52647.84;5075077;28;20354;-69
2022/11/28 10:20:18;;;;;;;;;;;;;;;-144.99;100.00;52615.25;5085306;28;20000;-72
2022/11/28 10:22:50;;;;;;;;;;;;;;;-144.99;100.00;52664.16;5070265;28;19960;-71
2022/11/28 10:25:18;;;;;;;;;;;;;;;-144.99;100.00;52613.19;5079321;28;20360;-72
2022/11/28 10:27:45;;;;;;;;;;;;;;;-144.99;100.00;52615.25;5083569;28;19932;-74
2022/11/28 10:30:17;;;;;;;;;;;;;;;-144.99;100.00;52625.44;5082805;28;20015;-72
2022/11/28 10:32:47;;;;;;;;;;;;;;;-144.99;100.00;52647.84;5065879;28;19932;-72
2022/11/28 10:35:19;;;;;;;;;;;;;;;-144.99;100.00;52623.38;5070842;28;20331;-70
2022/11/28 10:37:50;;;;;;;;;;;;;;;-144.99;100.00;52639.69;5086513;28;19980;-71
2022/11/28 10:40:27;;;;;;;;;;;;;;;-144.99;100.00;52623.38;5070935;28;19929;-71
2022/11/28 10:42:56;;;;;;;;;;;;;;;-144.99;100.00;52607.09;5066117;28;20421;-71
2022/11/28 10:45:27;;;;;;;;;;;;;;;-144.99;100.00;52615.25;5072425;28;19966;-72
2022/11/28 10:48:00;;;;;;;;;;;;;;;-144.99;100.00;52613.19;5078344;28;19983;-73
2022/11/28 10:50:32;;;;;;;;;;;;;;;-144.99;100.00;52656.00;5072276;28;20455;-73
2022/11/28 10:53:02;;;;;;;;;;;;;;;-144.99;100.00;52627.47;5078987;28;19924;-71
2022/11/28 10:55:35;;;;;;;;;;;;;;;-144.99;100.00;52627.47;5073772;28;20035;-72
2022/11/28 10:58:07;;;;;;;;;;;;;;;-144.99;100.00;52607.09;5076486;28;19939;-72
2022/11/28 11:00:35;;;;;;;;;;;;;;;-144.99;100.00;52658.03;5077621;28;20010;-72
2022/11/28 11:03:02;;;;;;;;;;;;;;;-144.99;100.00;52619.31;5064799;28;19975;-74
2022/11/28 11:05:29;;;;;;;;;;;;;;;-144.99;100.00;52623.38;5065525;28;20023;-70
2022/11/28 11:07:58;;;;;;;;;;;;;;;-144.99;100.00;52588.75;5072767;28;19963;-72
2022/11/28 11:10:30;;;;;;;;;;;;;;;-144.99;100.00;52623.38;5079672;28;19942;-71
2022/11/28 11:12:58;;;;;;;;;;;;;;;-144.99;100.00;52623.38;5081459;28;20146;-73
2022/11/28 11:15:29;;;;;;;;;;;;;;;-144.99;100.00;52615.25;5070897;28;19967;-70
2022/11/28 11:17:56;;;;;;;;;;;;;;;-144.99;100.00;52635.63;5077272;28;19939;-72
2022/11/28 11:20:28;;;;;;;;;;;;;;;-144.99;100.00;52643.78;5088417;28;19998;-73
2022/11/28 11:22:55;;;;;;;;;;;;;;;-144.99;100.00;52647.84;5069597;28;19952;-71
2022/11/28 11:25:23;;;;;;;;;;;;;;;-144.99;100.00;52615.25;5070088;28;19955;-73
2022/11/28 11:27:52;;;;;;;;;;;;;;;-144.99;100.00;52635.63;5075562;28;20291;-71
2022/11/28 11:30:24;;;;;;;;;;;;;;;-144.99;100.00;52603.00;5085989;28;19974;-71
2022/11/28 11:32:51;;;;;;;;;;;;;;;-144.99;100.00;52627.47;5070133;28;20018;-72
2022/11/28 11:35:20;;;;;;;;;;;;;;;-144.99;100.00;52635.63;5072215;28;19946;-73
2022/11/28 11:37:46;;;;;;;;;;;;;;;-144.99;100.00;52629.50;5081521;28;19985;-72
2022/11/28 11:40:21;;;;;;;;;;;;;;;-144.99;100.00;52623.38;5080505;28;19946;-73
2022/11/28 11:42:53;;;;;;;;;;;;;;;-144.99;100.00;52619.31;5091111;28;19956;-73
2022/11/28 11:45:27;;;;;;;;;;;;;;;-144.99;100.00;52615.25;5086697;28;20010;-71
2022/11/28 11:47:53;;;;;;;;;;;;;;;-144.99;100.00;52611.16;5078157;28;20335;-72
2022/11/28 11:50:21;;;;;;;;;;;;;;;-144.99;100.00;52631.53;5089536;28;19954;-76
2022/11/28 11:53:00;;;;;;;;;;;;;;;-144.99;100.00;52613.19;5084657;28;19964;-78
2022/11/28 11:55:28;;;;;;;;;;;;;;;-144.99;100.00;52617.28;5083834;28;19945;-73
2022/11/28 11:57:59;;;;;;;;;;;;;;;-144.99;100.00;52574.47;5070756;28;20332;-73
2022/11/28 12:00:28;;;;;;;;;;;;;;;-144.99;100.00;52635.63;5083404;28;20000;-71
2022/11/28 12:02:56;;;;;;;;;;;;;;;-144.99;100.00;52627.47;5080487;28;19939;-74
2022/11/28 12:05:26;;;;;;;;;;;;;;;-144.99;100.00;52635.63;5068778;28;19958;-74
2022/11/28 12:07:56;;;;;;;;;;;;;;;-144.99;100.00;52611.16;5074163;28;20569;-72
2022/11/28 12:10:25;;;;;;;;;;;;;;;-144.99;100.00;52619.31;5068316;28;20298;-74
2022/11/28 12:12:52;;;;;;;;;;;;;;;-144.99;100.00;52586.69;5079969;28;20439;-72
2022/11/28 12:15:23;;;;;;;;;;;;;;;-144.99;100.00;52639.69;5072749;28;19943;-72
2022/11/28 12:18:03;;;;;;;;;;;;;;;-144.99;100.00;52607.09;5082098;28;19986;-72
2022/11/28 12:20:47;;;;;;;;;;;;;;;-144.99;100.00;52635.63;5079113;28;19962;-71
2022/11/28 12:23:33;;;;;;;;;;;;;;;-144.99;100.00;52603.00;5080264;28;20016;-72
2022/11/28 12:26:02;;;;;;;;;;;;;;;-144.99;100.00;52639.69;5070272;28;20404;-71
2022/11/28 12:28:34;;;;;;;;;;;;;;;-144.99;100.00;52639.69;5080244;28;20381;-72